createdAt,value
2022-12-03T00:01:25.900Z,44.40
2022-12-03T00:04:28.955Z,44.60
2022-12-03T00:07:31.934Z,45.50
2022-12-03T00:10:34.932Z,45.70
2022-12-03T00:13:37.922Z,45.80
2022-12-03T00:16:41.059Z,49.50
2022-12-03T00:19:44.000Z,53.30
2022-12-03T00:22:48.880Z,48.40
2022-12-03T00:25:52.061Z,51.30
2022-12-03T00:28:55.023Z,47.30
2022-12-03T00:31:58.043Z,51.70
2022-12-03T00:35:00.974Z,46.30
2022-12-03T00:38:03.924Z,48.80
2022-12-03T00:41:06.994Z,49.80
2022-12-03T00:44:10.398Z,47.30
2022-12-03T00:47:13.495Z,50.10
2022-12-03T00:50:16.721Z,51.50
2022-12-03T00:53:19.890Z,49.20
2022-12-03T00:56:22.922Z,50.90
2022-12-03T00:59:26.106Z,48.00
2022-12-03T01:02:29.031Z,51.20
2022-12-03T01:05:32.070Z,49.50
2022-12-03T01:08:35.131Z,45.50
2022-12-03T01:11:38.025Z,51.10
2022-12-03T01:14:41.025Z,48.60
2022-12-03T01:17:43.979Z,48.00
2022-12-03T01:20:47.091Z,49.40
2022-12-03T01:23:49.975Z,52.40
2022-12-03T01:26:53.029Z,43.90
2022-12-03T01:29:55.921Z,47.40
2022-12-03T01:32:58.866Z,49.00
2022-12-03T01:36:01.815Z,49.00
2022-12-03T01:39:04.978Z,45.90
2022-12-03T01:42:11.891Z,50.60
2022-12-03T01:45:22.270Z,48.70
2022-12-03T01:48:25.344Z,51.90
2022-12-03T01:51:29.985Z,49.50
2022-12-03T01:54:40.241Z,49.50
2022-12-03T01:57:47.605Z,49.10
2022-12-03T02:00:50.849Z,48.20
2022-12-03T02:03:53.776Z,44.50
2022-12-03T02:06:56.772Z,49.90
2022-12-03T02:10:02.520Z,46.00
2022-12-03T02:13:10.335Z,41.30
2022-12-03T02:16:13.623Z,45.80
2022-12-03T02:19:27.858Z,48.70
2022-12-03T02:22:36.260Z,45.70
2022-12-03T02:25:39.493Z,48.80
2022-12-03T02:28:42.656Z,47.20
2022-12-03T02:31:45.699Z,49.40
2022-12-03T02:34:49.565Z,46.50
2022-12-03T02:37:58.191Z,49.50
2022-12-03T02:41:06.233Z,47.10
2022-12-03T02:44:09.865Z,50.40
2022-12-03T02:47:13.190Z,43.30
2022-12-03T02:50:22.118Z,48.70
2022-12-03T02:53:28.944Z,45.20
2022-12-03T02:56:33.144Z,47.80
2022-12-03T02:59:36.123Z,46.20
2022-12-03T03:02:40.714Z,47.10
2022-12-03T03:05:45.083Z,52.20
2022-12-03T03:08:48.261Z,46.80
2022-12-03T03:11:51.197Z,48.00
2022-12-03T03:14:54.579Z,47.40
2022-12-03T03:17:57.808Z,46.40
2022-12-03T03:21:00.932Z,43.70
2022-12-03T03:24:04.970Z,45.90
2022-12-03T03:27:08.041Z,48.10
2022-12-03T03:30:12.333Z,50.30
2022-12-03T03:33:16.547Z,46.70
2022-12-03T03:36:20.372Z,42.30
2022-12-03T03:39:23.486Z,46.70
2022-12-03T03:42:26.574Z,46.40
2022-12-03T03:45:29.944Z,47.10
2022-12-03T03:48:34.725Z,48.00
2022-12-03T03:51:38.668Z,46.20
2022-12-03T03:54:41.825Z,46.70
2022-12-03T03:57:44.806Z,42.10
2022-12-03T04:00:48.174Z,42.60
2022-12-03T04:03:53.732Z,44.00
2022-12-03T04:06:56.758Z,45.00
2022-12-03T04:10:20.656Z,39.80
2022-12-03T04:13:23.656Z,43.80
2022-12-03T04:16:26.815Z,42.20
2022-12-03T04:19:29.817Z,46.90
2022-12-03T04:22:41.934Z,45.60
2022-12-03T04:26:23.275Z,45.70
2022-12-03T04:29:26.310Z,44.20
2022-12-03T04:32:47.919Z,45.50
2022-12-03T04:35:51.042Z,47.10
2022-12-03T04:38:53.972Z,39.80
2022-12-03T04:41:57.696Z,43.40
2022-12-03T04:45:00.663Z,40.00
2022-12-03T04:48:03.800Z,45.50
2022-12-03T04:51:06.707Z,46.80
2022-12-03T04:54:09.764Z,45.60
2022-12-03T04:57:13.258Z,45.20
2022-12-03T05:00:16.561Z,47.00
2022-12-03T05:03:19.525Z,45.10
2022-12-03T05:06:22.787Z,48.20
2022-12-03T05:09:25.842Z,44.40
2022-12-03T05:12:28.830Z,46.00
2022-12-03T05:15:31.756Z,45.00
2022-12-03T05:18:34.776Z,44.90
2022-12-03T05:21:37.724Z,41.10
2022-12-03T05:24:40.755Z,43.70
2022-12-03T05:27:43.766Z,42.50
2022-12-03T05:30:46.795Z,42.30
2022-12-03T05:33:49.864Z,41.70
2022-12-03T05:36:52.862Z,46.70
2022-12-03T05:39:55.840Z,47.30
2022-12-03T05:43:01.161Z,46.30
2022-12-03T05:46:04.199Z,50.60
2022-12-03T05:49:07.214Z,48.60
2022-12-03T05:52:10.198Z,51.70
2022-12-03T05:55:13.839Z,47.90
2022-12-03T05:58:16.795Z,44.90
2022-12-03T06:01:19.823Z,47.40
2022-12-03T06:04:22.816Z,48.40
2022-12-03T06:07:26.658Z,51.40
2022-12-03T06:10:29.783Z,47.30
2022-12-03T06:13:32.843Z,47.90
2022-12-03T06:16:38.827Z,47.90
2022-12-03T06:19:41.837Z,52.20
2022-12-03T06:22:45.475Z,50.00
2022-12-03T06:25:48.497Z,55.00
2022-12-03T06:28:51.422Z,53.80
2022-12-03T06:31:54.389Z,54.80
2022-12-03T06:34:57.390Z,56.10
2022-12-03T06:38:00.463Z,56.50
2022-12-03T06:41:05.115Z,54.40
2022-12-03T06:44:08.055Z,57.20
2022-12-03T06:47:10.997Z,58.30
2022-12-03T06:50:14.146Z,57.70
2022-12-03T06:53:17.208Z,63.50
2022-12-03T06:56:22.449Z,59.50
2022-12-03T06:59:26.133Z,67.50
2022-12-03T07:02:29.187Z,62.40
2022-12-03T07:05:32.251Z,68.60
2022-12-03T07:08:35.507Z,57.70
2022-12-03T07:11:41.435Z,62.10
2022-12-03T07:14:44.354Z,61.40
2022-12-03T07:17:47.285Z,62.30
2022-12-03T07:20:51.599Z,57.60
2022-12-03T07:23:59.525Z,53.00
2022-12-03T07:27:02.865Z,58.50
2022-12-03T07:30:18.740Z,56.90
2022-12-03T07:33:21.831Z,53.60
2022-12-03T07:36:24.922Z,60.70
2022-12-03T07:39:28.170Z,55.10
2022-12-03T07:42:31.165Z,60.20
2022-12-03T07:45:34.070Z,61.20
2022-12-03T07:48:37.007Z,56.40
2022-12-03T07:51:40.345Z,57.00
2022-12-03T07:54:43.246Z,59.60
2022-12-03T07:57:46.338Z,57.50
2022-12-03T08:00:49.353Z,52.60
2022-12-03T08:03:52.631Z,55.10
2022-12-03T08:06:55.706Z,56.90
2022-12-03T08:09:58.716Z,54.40
2022-12-03T08:13:02.964Z,65.10
2022-12-03T08:16:15.167Z,60.00
2022-12-03T08:19:18.547Z,61.10
2022-12-03T08:22:22.408Z,62.10
2022-12-03T08:25:28.577Z,57.30
2022-12-03T08:28:32.061Z,63.00
2022-12-03T08:31:35.077Z,61.60
2022-12-03T08:34:43.688Z,45.30
2022-12-03T08:37:46.749Z,57.10
2022-12-03T08:40:52.104Z,58.70
2022-12-03T08:43:55.257Z,54.90
2022-12-03T08:47:16.400Z,57.40
2022-12-03T08:50:43.072Z,51.40
2022-12-03T08:53:48.487Z,53.90
2022-12-03T08:56:51.777Z,58.00
2022-12-03T08:59:59.978Z,61.50
2022-12-03T09:03:03.189Z,60.90
2022-12-03T09:06:06.491Z,61.00
2022-12-03T09:09:09.562Z,70.70
2022-12-03T09:12:12.497Z,65.00
2022-12-03T09:15:16.515Z,59.80
2022-12-03T09:18:19.520Z,60.80
2022-12-03T09:21:22.560Z,62.60
2022-12-03T09:24:25.556Z,61.40
2022-12-03T09:27:28.685Z,57.90
2022-12-03T09:30:31.943Z,57.20
2022-12-03T09:33:35.324Z,59.50
2022-12-03T09:36:38.311Z,68.30
2022-12-03T09:39:41.279Z,57.90
2022-12-03T09:42:44.757Z,63.80
2022-12-03T09:45:49.215Z,60.40
2022-12-03T09:48:52.560Z,67.80
2022-12-03T09:51:58.668Z,60.20
2022-12-03T09:55:08.034Z,66.70
2022-12-03T09:58:13.814Z,71.80
2022-12-03T10:01:17.895Z,67.30
2022-12-03T10:04:21.407Z,64.20
2022-12-03T10:07:25.955Z,64.60
2022-12-03T10:10:29.143Z,63.40
2022-12-03T10:13:34.567Z,69.10
2022-12-03T10:16:40.413Z,70.60
2022-12-03T10:19:44.746Z,69.60
2022-12-03T10:22:49.006Z,65.00
2022-12-03T10:26:03.026Z,62.60
2022-12-03T10:29:13.346Z,71.10
2022-12-03T10:32:16.339Z,72.60
2022-12-03T10:35:36.362Z,67.10
2022-12-03T10:38:39.315Z,72.50
2022-12-03T10:41:44.451Z,71.40
2022-12-03T10:44:47.462Z,72.20
2022-12-03T10:48:27.456Z,75.10
2022-12-03T10:51:30.980Z,75.20
2022-12-03T10:54:35.524Z,75.70
2022-12-03T10:57:43.711Z,76.00
2022-12-03T11:00:50.380Z,74.90
2022-12-03T11:04:04.745Z,77.10
2022-12-03T11:07:20.161Z,68.10
2022-12-03T11:10:23.838Z,70.00
2022-12-03T11:13:45.362Z,64.50
2022-12-03T11:16:51.455Z,65.00
2022-12-03T11:19:54.735Z,67.50
2022-12-03T11:22:58.964Z,66.10
2022-12-03T11:26:03.129Z,70.10
2022-12-03T11:29:14.087Z,67.90
2022-12-03T11:32:39.222Z,68.80
2022-12-03T11:36:03.878Z,69.70
2022-12-03T11:39:09.564Z,74.50
2022-12-03T11:42:27.632Z,75.80
2022-12-03T11:45:36.805Z,75.20
2022-12-03T11:48:47.424Z,77.60
2022-12-03T11:51:51.142Z,76.50
2022-12-03T11:54:59.703Z,78.40
2022-12-03T11:58:29.672Z,91.90
2022-12-03T12:01:38.527Z,87.20
2022-12-03T12:04:46.780Z,89.00
2022-12-03T12:07:50.919Z,91.50
2022-12-03T12:10:54.279Z,89.20
2022-12-03T12:13:58.584Z,96.70
2022-12-03T12:17:03.724Z,99.50
2022-12-03T12:20:30.399Z,106.70
2022-12-03T12:23:33.465Z,106.40
2022-12-03T12:26:36.366Z,103.80
2022-12-03T12:29:42.331Z,107.30
2022-12-03T12:32:48.157Z,106.60
2022-12-03T12:35:51.338Z,108.80
2022-12-03T12:38:54.315Z,112.40
2022-12-03T12:41:57.963Z,106.00
2022-12-03T12:45:16.360Z,106.70
2022-12-03T12:48:34.296Z,108.60
2022-12-03T12:51:49.390Z,104.20
2022-12-03T12:54:52.402Z,108.00
2022-12-03T12:58:00.006Z,107.50
2022-12-03T13:01:21.455Z,95.00
2022-12-03T13:04:24.970Z,92.10
2022-12-03T13:07:28.249Z,98.70
2022-12-03T13:10:41.967Z,97.30
2022-12-03T13:13:44.937Z,104.40
2022-12-03T13:16:49.843Z,100.40
2022-12-03T13:20:03.684Z,100.90
2022-12-03T13:23:27.399Z,101.80
2022-12-03T13:26:39.790Z,98.60
2022-12-03T13:29:44.118Z,93.80
2022-12-03T13:32:47.035Z,99.30
2022-12-03T13:35:52.582Z,107.20
2022-12-03T13:38:55.539Z,99.90
2022-12-03T13:42:34.598Z,89.50
2022-12-03T13:45:40.463Z,91.20
2022-12-03T13:48:45.293Z,94.20
2022-12-03T13:51:49.303Z,85.80
2022-12-03T13:54:55.155Z,77.90
2022-12-03T13:57:58.239Z,73.00
2022-12-03T14:01:01.284Z,76.10
2022-12-03T14:04:04.525Z,72.90
2022-12-03T14:07:07.485Z,74.90
2022-12-03T14:10:11.748Z,78.10
2022-12-03T14:13:14.792Z,78.00
2022-12-03T14:16:17.810Z,76.10
2022-12-03T14:19:20.774Z,78.40
2022-12-03T14:22:25.378Z,67.20
2022-12-03T14:25:28.434Z,78.50
2022-12-03T14:28:31.437Z,83.50
2022-12-03T14:31:34.401Z,79.50
2022-12-03T14:34:37.418Z,73.50
2022-12-03T14:37:40.315Z,77.10
2022-12-03T14:40:43.260Z,78.40
2022-12-03T14:43:46.207Z,81.60
2022-12-03T14:46:55.378Z,76.40
2022-12-03T14:50:00.003Z,78.90
2022-12-03T14:53:02.954Z,78.50
2022-12-03T14:56:05.853Z,89.80
2022-12-03T14:59:08.842Z,86.20
2022-12-03T15:02:12.473Z,80.10
2022-12-03T15:05:15.688Z,75.70
2022-12-03T15:08:18.766Z,85.00
2022-12-03T15:11:21.770Z,86.30
2022-12-03T15:14:24.676Z,78.30
2022-12-03T15:17:31.652Z,82.00
2022-12-03T15:20:35.716Z,79.60
2022-12-03T15:23:38.819Z,79.60
2022-12-03T15:26:41.720Z,64.60
2022-12-03T15:29:44.636Z,77.00
2022-12-03T15:32:47.695Z,79.40
2022-12-03T15:35:50.586Z,76.90
2022-12-03T15:38:53.701Z,76.50
2022-12-03T15:41:56.617Z,79.60
2022-12-03T15:44:59.514Z,75.00
2022-12-03T15:48:02.904Z,79.90
2022-12-03T15:51:07.045Z,79.70
2022-12-03T15:54:12.263Z,82.30
2022-12-03T15:57:15.710Z,79.60
2022-12-03T16:00:19.046Z,83.30
2022-12-03T16:03:22.013Z,87.10
2022-12-03T16:06:25.172Z,93.00
2022-12-03T16:09:28.156Z,93.30
2022-12-03T16:12:31.187Z,90.90
2022-12-03T16:15:35.239Z,93.90
2022-12-03T16:18:38.314Z,91.30
2022-12-03T16:21:41.231Z,98.50
2022-12-03T16:24:44.206Z,88.70
2022-12-03T16:27:47.534Z,92.70
2022-12-03T16:30:50.487Z,98.50
2022-12-03T16:33:53.471Z,99.50
2022-12-03T16:36:56.417Z,92.70
2022-12-03T16:39:59.446Z,94.90
2022-12-03T16:43:04.437Z,95.60
2022-12-03T16:46:34.164Z,94.70
2022-12-03T16:49:37.147Z,93.90
2022-12-03T16:52:40.112Z,87.80
2022-12-03T16:55:43.108Z,89.70
2022-12-03T16:58:46.134Z,94.00
2022-12-03T17:01:49.063Z,91.50
2022-12-03T17:04:52.057Z,89.90
2022-12-03T17:07:55.093Z,85.00
2022-12-03T17:10:58.151Z,84.30
2022-12-03T17:14:01.142Z,91.10
2022-12-03T17:17:04.222Z,83.70
2022-12-03T17:20:08.278Z,78.50
2022-12-03T17:23:12.535Z,81.30
2022-12-03T17:26:15.520Z,86.90
2022-12-03T17:29:18.650Z,83.20
2022-12-03T17:32:25.378Z,78.60
2022-12-03T17:35:30.793Z,82.00
2022-12-03T17:38:39.035Z,76.80
2022-12-03T17:41:46.410Z,82.00
2022-12-03T17:44:50.065Z,76.90
2022-12-03T17:47:54.155Z,74.50
2022-12-03T17:50:58.140Z,71.30
2022-12-03T17:54:01.066Z,73.40
2022-12-03T17:57:06.349Z,79.40
2022-12-03T18:00:09.844Z,77.80
2022-12-03T18:03:16.589Z,77.90
2022-12-03T18:06:19.539Z,80.30
2022-12-03T18:09:22.694Z,83.70
2022-12-03T18:12:25.745Z,80.40
2022-12-03T18:15:29.076Z,83.90
2022-12-03T18:18:32.569Z,80.60
2022-12-03T18:21:38.947Z,78.90
2022-12-03T18:24:47.596Z,76.70
2022-12-03T18:27:53.345Z,74.30
2022-12-03T18:31:01.667Z,72.80
2022-12-03T18:34:04.611Z,78.00
2022-12-03T18:37:11.896Z,82.40
2022-12-03T18:40:24.659Z,82.30
2022-12-03T18:43:29.757Z,82.20
2022-12-03T18:46:52.889Z,79.60
2022-12-03T18:49:57.826Z,82.50
2022-12-03T18:53:01.412Z,82.40
2022-12-03T18:56:04.612Z,82.50
2022-12-03T18:59:07.834Z,79.10
2022-12-03T19:02:32.469Z,86.90
2022-12-03T19:05:40.333Z,81.10
2022-12-03T19:08:44.216Z,77.10
2022-12-03T19:11:47.271Z,74.60
2022-12-03T19:14:51.138Z,82.00
2022-12-03T19:17:54.162Z,78.40
2022-12-03T19:20:57.418Z,74.30
2022-12-03T19:24:24.305Z,76.10
2022-12-03T19:27:24.375Z,77.00
2022-12-03T19:30:27.335Z,75.60
2022-12-03T19:33:31.244Z,81.00
2022-12-03T19:36:34.551Z,81.40
2022-12-03T19:39:37.538Z,78.10
2022-12-03T19:42:40.562Z,82.90
2022-12-03T19:45:43.527Z,77.80
2022-12-03T19:48:47.000Z,78.10
2022-12-03T19:51:50.462Z,79.10
2022-12-03T19:54:53.503Z,79.40
2022-12-03T19:57:56.626Z,80.60
2022-12-03T20:01:14.764Z,80.10
2022-12-03T20:04:17.741Z,81.20
2022-12-03T20:07:20.844Z,80.90
2022-12-03T20:10:24.017Z,76.90
2022-12-03T20:13:29.822Z,77.90
2022-12-03T20:16:35.789Z,76.30
2022-12-03T20:19:38.934Z,79.10
2022-12-03T20:22:43.352Z,76.90
2022-12-03T20:25:46.311Z,83.20
2022-12-03T20:28:50.098Z,82.00
2022-12-03T20:31:53.096Z,79.20
2022-12-03T20:34:56.142Z,82.30
2022-12-03T20:37:59.073Z,89.00
2022-12-03T20:41:04.129Z,81.90
2022-12-03T20:44:07.914Z,86.50
2022-12-03T20:47:10.885Z,86.40
2022-12-03T20:50:13.785Z,87.20
2022-12-03T20:53:24.746Z,90.50
2022-12-03T20:56:31.845Z,85.50
2022-12-03T20:59:34.850Z,92.00
2022-12-03T21:02:38.250Z,93.50
2022-12-03T21:05:43.825Z,85.40
2022-12-03T21:08:47.504Z,90.00
2022-12-03T21:11:50.589Z,91.40
2022-12-03T21:14:53.576Z,97.60
2022-12-03T21:17:56.556Z,94.40
2022-12-03T21:21:01.968Z,93.40
2022-12-03T21:24:05.376Z,96.80
2022-12-03T21:27:08.515Z,91.30
2022-12-03T21:30:11.873Z,86.70
2022-12-03T21:33:15.055Z,86.30
2022-12-03T21:36:18.168Z,92.80
2022-12-03T21:39:21.123Z,91.10
2022-12-03T21:42:35.573Z,90.90
2022-12-03T21:45:43.076Z,89.20
2022-12-03T21:48:48.466Z,88.60
2022-12-03T21:51:51.626Z,99.30
2022-12-03T21:54:55.147Z,93.60
2022-12-03T21:57:58.420Z,94.70
2022-12-03T22:01:01.713Z,89.20
2022-12-03T22:04:04.867Z,91.60
2022-12-03T22:07:07.941Z,88.60
2022-12-03T22:10:11.823Z,92.10
2022-12-03T22:13:14.846Z,87.80
2022-12-03T22:16:20.210Z,85.90
2022-12-03T22:19:24.507Z,88.10
2022-12-03T22:22:27.434Z,88.00
2022-12-03T22:25:30.708Z,80.60
2022-12-03T22:28:35.267Z,88.70
2022-12-03T22:31:38.405Z,88.50
2022-12-03T22:34:41.740Z,86.10
2022-12-03T22:37:44.705Z,83.40
2022-12-03T22:40:47.724Z,81.50
2022-12-03T22:43:50.723Z,85.30
2022-12-03T22:46:53.775Z,82.70
2022-12-03T22:49:57.158Z,82.60
2022-12-03T22:53:00.235Z,81.40
2022-12-03T22:56:03.225Z,82.40
2022-12-03T22:59:06.854Z,75.80
2022-12-03T23:02:09.952Z,83.60
2022-12-03T23:05:12.970Z,85.90
2022-12-03T23:08:19.592Z,81.00
2022-12-03T23:11:23.388Z,73.10
2022-12-03T23:14:26.343Z,77.80
2022-12-03T23:17:29.335Z,75.90
2022-12-03T23:20:32.333Z,74.70
2022-12-03T23:23:35.341Z,74.20
2022-12-03T23:26:39.484Z,73.10
2022-12-03T23:29:42.454Z,70.80
2022-12-03T23:32:45.582Z,68.90
2022-12-03T23:35:48.607Z,67.70
2022-12-03T23:38:51.654Z,72.80
2022-12-03T23:41:54.666Z,68.30
2022-12-03T23:44:57.657Z,72.30
2022-12-03T23:48:01.158Z,66.20
2022-12-03T23:51:10.322Z,62.50
2022-12-03T23:54:13.368Z,64.60
2022-12-03T23:57:16.332Z,66.30
